createdAt,value
2022-09-10T00:02:00.383Z,2.70
2022-09-10T00:04:31.253Z,3.30
2022-09-10T00:07:02.092Z,2.60
2022-09-10T00:09:32.719Z,2.20
2022-09-10T00:12:03.905Z,2.30
2022-09-10T00:14:35.799Z,5.30
2022-09-10T00:17:06.768Z,4.60
2022-09-10T00:19:37.440Z,2.40
2022-09-10T00:22:10.497Z,1.70
2022-09-10T00:24:41.345Z,3.90
2022-09-10T00:27:11.923Z,3.90
2022-09-10T00:29:42.710Z,3.50
2022-09-10T00:32:14.786Z,2.50
2022-09-10T00:34:45.694Z,4.40
2022-09-10T00:37:18.363Z,4.30
2022-09-10T00:39:49.168Z,2.70
2022-09-10T00:42:19.961Z,2.50
2022-09-10T00:45:05.718Z,4.00
2022-09-10T00:47:38.679Z,1.40
2022-09-10T00:50:18.611Z,3.20
2022-09-10T00:52:49.791Z,4.20
2022-09-10T00:55:22.007Z,4.50
2022-09-10T01:00:26.052Z,1.70
2022-09-10T01:02:56.822Z,2.00
2022-09-10T01:05:29.298Z,1.60
2022-09-10T01:08:00.133Z,2.40
2022-09-10T01:10:38.758Z,2.80
2022-09-10T01:13:22.820Z,1.50
2022-09-10T01:16:00.812Z,2.20
2022-09-10T01:18:42.773Z,2.90
2022-09-10T01:21:34.602Z,3.60
2022-09-10T01:24:33.110Z,4.20
2022-09-10T01:27:27.944Z,2.80
2022-09-10T01:30:07.204Z,2.50
2022-09-10T01:32:48.898Z,3.50
2022-09-10T01:35:25.672Z,2.90
2022-09-10T01:38:00.865Z,5.00
2022-09-10T01:40:32.547Z,3.30
2022-09-10T01:43:08.817Z,3.40
2022-09-10T01:45:59.063Z,1.40
2022-09-10T01:48:45.227Z,2.60
2022-09-10T01:51:29.688Z,1.60
2022-09-10T01:54:24.922Z,4.50
2022-09-10T01:57:07.747Z,3.40
2022-09-10T01:59:44.892Z,4.20
2022-09-10T02:02:22.681Z,2.70
2022-09-10T02:04:55.398Z,4.40
2022-09-10T02:07:29.144Z,4.30
2022-09-10T02:10:01.044Z,3.60
2022-09-10T02:12:36.767Z,2.60
2022-09-10T02:18:13.901Z,2.40
2022-09-10T02:20:45.468Z,3.20
2022-09-10T02:23:19.294Z,1.60
2022-09-10T02:25:50.571Z,2.50
2022-09-10T02:28:21.497Z,1.40
2022-09-10T02:30:52.390Z,2.70
2022-09-10T02:33:23.211Z,1.40
2022-09-10T02:35:53.955Z,7.80
2022-09-10T02:38:24.592Z,2.80
2022-09-10T02:40:59.416Z,2.30
2022-09-10T02:43:30.762Z,2.10
2022-09-10T02:46:03.823Z,3.70
2022-09-10T02:48:34.848Z,2.40
2022-09-10T02:51:05.616Z,4.40
2022-09-10T02:53:36.460Z,2.10
2022-09-10T02:56:08.855Z,3.10
2022-09-10T02:58:40.357Z,5.20
2022-09-10T03:01:14.996Z,1.70
2022-09-10T03:03:50.170Z,2.80
2022-09-10T03:06:22.305Z,4.30
2022-09-10T03:08:55.277Z,2.20
2022-09-10T03:11:27.324Z,2.30
2022-09-10T03:13:58.447Z,2.60
2022-09-10T03:16:29.339Z,3.30
2022-09-10T03:19:00.176Z,2.30
2022-09-10T03:21:30.861Z,3.60
2022-09-10T03:24:03.880Z,4.30
2022-09-10T03:26:36.327Z,1.70
2022-09-10T03:29:07.342Z,1.20
2022-09-10T03:31:40.723Z,1.90
2022-09-10T03:34:14.347Z,2.00
2022-09-10T03:36:47.332Z,2.70
2022-09-10T03:39:19.002Z,2.00
2022-09-10T03:41:49.730Z,2.50
2022-09-10T03:44:20.361Z,3.70
2022-09-10T03:46:52.612Z,0.60
2022-09-10T03:49:23.409Z,1.10
2022-09-10T03:51:54.567Z,4.80
2022-09-10T03:54:25.373Z,1.60
2022-09-10T03:56:56.035Z,3.80
2022-09-10T03:59:26.997Z,2.00
2022-09-10T04:04:29.540Z,2.40
2022-09-10T04:07:01.029Z,3.20
2022-09-10T04:09:32.667Z,2.90
2022-09-10T04:12:04.327Z,3.40
2022-09-10T04:14:36.597Z,4.50
2022-09-10T04:17:07.413Z,2.80
2022-09-10T04:19:40.782Z,2.50
2022-09-10T04:22:11.390Z,1.80
2022-09-10T04:24:44.625Z,2.00
2022-09-10T04:27:16.459Z,2.10
2022-09-10T04:29:47.142Z,3.20
2022-09-10T04:32:18.926Z,1.90
2022-09-10T04:34:49.703Z,3.40
2022-09-10T04:37:21.739Z,1.40
2022-09-10T04:39:52.893Z,8.00
2022-09-10T04:42:23.889Z,2.00
2022-09-10T04:44:56.933Z,1.00
2022-09-10T04:47:27.617Z,2.70
2022-09-10T04:49:58.246Z,2.60
2022-09-10T04:52:29.065Z,5.30
2022-09-10T04:55:00.880Z,2.40
2022-09-10T04:57:31.474Z,2.40
2022-09-10T05:00:02.481Z,4.00
2022-09-10T05:02:33.489Z,2.50
2022-09-10T05:05:04.435Z,3.10
2022-09-10T05:07:35.925Z,1.10
2022-09-10T05:10:10.569Z,1.80
2022-09-10T05:12:41.460Z,2.30
2022-09-10T05:15:13.217Z,1.70
2022-09-10T05:17:44.037Z,3.90
2022-09-10T05:20:15.124Z,2.60
2022-09-10T05:22:52.437Z,2.30
2022-09-10T05:25:24.312Z,2.20
2022-09-10T05:27:55.226Z,2.80
2022-09-10T05:30:26.606Z,3.40
2022-09-10T05:32:57.995Z,4.00
2022-09-10T05:35:29.280Z,2.20
2022-09-10T05:38:01.014Z,3.60
2022-09-10T05:40:33.377Z,4.60
2022-09-10T05:43:04.123Z,1.80
2022-09-10T05:45:35.739Z,1.40
2022-09-10T05:48:07.130Z,2.80
2022-09-10T05:50:39.407Z,2.00
2022-09-10T05:53:10.643Z,3.10
2022-09-10T05:55:41.777Z,3.10
2022-09-10T05:58:13.578Z,2.10
2022-09-10T06:00:45.342Z,1.60
2022-09-10T06:03:17.179Z,1.70
2022-09-10T06:05:52.245Z,1.80
2022-09-10T06:08:27.816Z,2.40
2022-09-10T06:11:02.116Z,5.00
2022-09-10T06:13:39.288Z,0.70
2022-09-10T06:16:11.068Z,1.60
2022-09-10T06:18:42.520Z,1.50
2022-09-10T06:21:16.939Z,1.30
2022-09-10T06:23:53.570Z,4.50
2022-09-10T06:26:25.077Z,2.10
2022-09-10T06:28:59.068Z,4.50
2022-09-10T06:31:29.758Z,1.30
2022-09-10T06:34:00.761Z,2.10
2022-09-10T06:36:33.949Z,1.40
2022-09-10T06:39:07.136Z,1.40
2022-09-10T06:41:49.741Z,1.60
2022-09-10T06:44:39.506Z,1.30
2022-09-10T06:50:16.971Z,2.10
2022-09-10T06:52:49.984Z,1.90
2022-09-10T06:55:23.847Z,1.30
2022-09-10T06:57:54.757Z,1.60
2022-09-10T07:00:26.243Z,1.90
2022-09-10T07:03:00.116Z,2.30
2022-09-10T07:05:33.466Z,1.30
2022-09-10T07:08:05.551Z,0.80
2022-09-10T07:10:37.430Z,1.60
2022-09-10T07:13:09.895Z,2.30
2022-09-10T07:15:47.490Z,1.40
2022-09-10T07:18:19.489Z,2.50
2022-09-10T07:20:50.989Z,1.20
2022-09-10T07:23:23.543Z,1.00
2022-09-10T07:25:56.395Z,1.90
2022-09-10T07:28:42.413Z,0.90
2022-09-10T07:31:19.048Z,1.80
2022-09-10T07:33:51.631Z,0.60
2022-09-10T07:36:22.579Z,0.90
2022-09-10T07:38:57.604Z,0.70
2022-09-10T07:41:30.136Z,0.60
2022-09-10T07:44:03.758Z,1.60
2022-09-10T07:46:39.668Z,1.20
2022-09-10T07:49:13.176Z,1.20
2022-09-10T07:51:45.676Z,2.20
2022-09-10T07:54:17.287Z,0.80
2022-09-10T07:56:53.389Z,0.60
2022-09-10T07:59:24.447Z,0.90
2022-09-10T08:02:00.685Z,1.00
2022-09-10T08:04:37.064Z,2.00
2022-09-10T08:07:10.908Z,1.40
2022-09-10T08:09:43.247Z,1.20
2022-09-10T08:12:17.445Z,1.20
2022-09-10T08:14:48.465Z,0.40
2022-09-10T08:17:19.810Z,2.70
2022-09-10T08:19:51.776Z,1.30
2022-09-10T08:22:22.344Z,1.90
2022-09-10T08:24:59.122Z,1.30
2022-09-10T08:27:33.054Z,1.00
2022-09-10T08:30:07.129Z,1.20
2022-09-10T08:32:38.472Z,0.90
2022-09-10T08:35:10.617Z,1.10
2022-09-10T08:37:41.294Z,2.40
2022-09-10T08:40:14.718Z,0.90
2022-09-10T08:42:50.376Z,1.10
2022-09-10T08:45:26.596Z,1.60
2022-09-10T08:48:03.503Z,1.20
2022-09-10T08:50:40.199Z,1.20
2022-09-10T08:53:26.960Z,1.30
2022-09-10T08:56:03.473Z,1.50
2022-09-10T08:58:42.445Z,3.00
2022-09-10T09:01:28.036Z,0.80
2022-09-10T09:04:06.019Z,0.60
2022-09-10T09:06:43.755Z,1.00
2022-09-10T09:09:16.026Z,1.00
2022-09-10T09:11:59.341Z,0.80
2022-09-10T09:14:41.180Z,1.00
2022-09-10T09:17:35.816Z,1.20
2022-09-10T09:20:18.409Z,1.90
2022-09-10T09:22:55.442Z,0.90
2022-09-10T09:25:39.286Z,0.90
2022-09-10T09:28:18.100Z,0.60
2022-09-10T09:30:50.752Z,1.90
2022-09-10T09:33:25.193Z,1.70
2022-09-10T09:36:01.247Z,1.40
2022-09-10T09:38:37.320Z,1.50
2022-09-10T09:41:16.124Z,1.50
2022-09-10T09:43:54.243Z,1.30
2022-09-10T09:46:26.203Z,2.00
2022-09-10T09:49:03.004Z,1.80
2022-09-10T09:51:36.483Z,2.80
2022-09-10T09:54:46.718Z,1.20
2022-09-10T09:57:03.470Z,0.80
2022-09-10T09:59:35.812Z,2.10
2022-09-10T10:02:14.022Z,2.10
2022-09-10T10:04:56.968Z,2.20
2022-09-10T10:07:32.994Z,1.20
2022-09-10T10:10:07.393Z,0.70
2022-09-10T10:12:49.539Z,1.10
2022-09-10T10:15:39.154Z,1.60
2022-09-10T10:21:18.051Z,0.90
2022-09-10T10:23:49.795Z,2.30
2022-09-10T10:26:32.374Z,1.40
2022-09-10T10:29:07.327Z,2.90
2022-09-10T10:31:44.758Z,1.30
2022-09-10T10:34:37.403Z,1.40
2022-09-10T10:37:22.259Z,1.40
2022-09-10T10:40:11.110Z,1.40
2022-09-10T10:42:47.461Z,1.70
2022-09-10T10:45:42.582Z,1.00
2022-09-10T10:48:21.489Z,1.20
2022-09-10T10:51:04.785Z,1.70
2022-09-10T10:53:48.734Z,2.10
2022-09-10T10:56:29.093Z,1.20
2022-09-10T10:59:37.045Z,2.70
2022-09-10T11:04:48.719Z,0.60
2022-09-10T11:07:23.628Z,2.70
2022-09-10T11:10:01.485Z,1.90
2022-09-10T11:12:36.031Z,1.70
2022-09-10T11:15:18.652Z,0.90
2022-09-10T11:17:54.844Z,0.80
2022-09-10T11:20:30.441Z,0.50
2022-09-10T11:23:09.020Z,3.20
2022-09-10T11:25:47.878Z,0.70
2022-09-10T11:28:23.062Z,1.50
2022-09-10T11:31:05.085Z,1.20
2022-09-10T11:33:43.153Z,1.60
2022-09-10T11:36:23.242Z,1.20
2022-09-10T11:39:06.788Z,2.90
2022-09-10T11:41:42.220Z,1.70
2022-09-10T11:44:36.804Z,1.60
2022-09-10T11:47:15.046Z,2.30
2022-09-10T11:49:53.560Z,3.10
2022-09-10T11:52:25.801Z,1.40
2022-09-10T11:54:57.381Z,1.60
2022-09-10T11:57:37.634Z,1.30
2022-09-10T12:00:16.867Z,0.70
2022-09-10T12:03:25.641Z,1.00
2022-09-10T12:06:04.586Z,1.60
2022-09-10T12:08:49.606Z,1.70
2022-09-10T12:11:29.700Z,1.00
2022-09-10T12:14:00.983Z,0.60
2022-09-10T12:16:38.073Z,2.20
2022-09-10T12:19:20.455Z,0.90
2022-09-10T12:21:54.135Z,1.40
2022-09-10T12:24:33.477Z,1.00
2022-09-10T12:27:06.005Z,1.10
2022-09-10T12:29:40.763Z,0.80
2022-09-10T12:32:32.369Z,1.10
2022-09-10T12:35:46.004Z,1.50
2022-09-10T12:38:51.185Z,1.10
2022-09-10T12:41:59.645Z,1.10
2022-09-10T12:44:45.229Z,0.70
2022-09-10T12:47:50.574Z,0.60
2022-09-10T12:50:46.344Z,0.30
2022-09-10T12:53:48.459Z,2.80
2022-09-10T12:59:39.519Z,1.30
2022-09-10T13:02:27.978Z,1.20
2022-09-10T13:05:03.151Z,1.90
2022-09-10T13:07:41.831Z,1.40
2022-09-10T13:10:22.381Z,1.10
2022-09-10T13:12:56.676Z,0.70
2022-09-10T13:15:30.236Z,2.10
2022-09-10T13:18:28.534Z,1.50
2022-09-10T13:20:59.811Z,1.60
2022-09-10T13:23:50.629Z,1.20
2022-09-10T13:26:52.803Z,2.40
2022-09-10T13:29:47.066Z,3.10
2022-09-10T13:32:27.411Z,1.40
2022-09-10T13:35:23.504Z,1.20
2022-09-10T13:38:13.545Z,1.00
2022-09-10T13:40:58.101Z,2.00
2022-09-10T13:43:48.796Z,1.50
2022-09-10T13:46:30.561Z,1.90
2022-09-10T13:49:12.156Z,1.10
2022-09-10T13:51:51.119Z,0.80
2022-09-10T13:54:33.206Z,1.50
2022-09-10T13:57:17.661Z,1.70
2022-09-10T13:59:52.506Z,0.70
2022-09-10T14:02:41.365Z,1.20
2022-09-10T14:05:28.391Z,2.20
2022-09-10T14:08:02.986Z,0.70
2022-09-10T14:10:36.901Z,0.40
2022-09-10T14:13:09.375Z,2.50
2022-09-10T14:15:41.547Z,3.60
2022-09-10T14:18:13.453Z,2.00
2022-09-10T14:23:17.991Z,1.40
2022-09-10T14:25:48.921Z,0.50
2022-09-10T14:28:26.630Z,1.00
2022-09-10T14:31:20.526Z,0.70
2022-09-10T14:33:51.439Z,0.80
2022-09-10T14:36:31.467Z,1.20
2022-09-10T14:39:16.308Z,2.70
2022-09-10T14:41:47.712Z,1.70
2022-09-10T14:44:30.537Z,2.60
2022-09-10T14:47:12.963Z,3.20
2022-09-10T14:49:47.106Z,1.50
2022-09-10T14:52:18.161Z,2.30
2022-09-10T14:54:48.987Z,2.60
2022-09-10T14:57:19.743Z,3.10
2022-09-10T14:59:55.280Z,1.50
2022-09-10T15:02:29.776Z,1.10
2022-09-10T15:05:00.469Z,0.80
2022-09-10T15:07:31.541Z,1.80
2022-09-10T15:10:02.216Z,1.70
2022-09-10T15:12:34.123Z,3.60
2022-09-10T15:17:35.067Z,1.70
2022-09-10T15:22:35.835Z,5.20
2022-09-10T15:25:10.526Z,4.10
2022-09-10T15:27:41.882Z,1.50
2022-09-10T15:30:13.423Z,0.70
2022-09-10T15:32:45.989Z,1.00
2022-09-10T15:35:17.003Z,3.70
2022-09-10T15:37:47.686Z,1.30
2022-09-10T15:40:18.655Z,1.30
2022-09-10T15:42:49.905Z,1.30
2022-09-10T15:45:20.899Z,3.00
2022-09-10T15:47:52.259Z,3.60
2022-09-10T15:50:22.995Z,0.40
2022-09-10T15:52:53.731Z,0.80
2022-09-10T15:55:24.331Z,1.00
2022-09-10T15:57:55.176Z,2.00
2022-09-10T16:00:26.062Z,1.60
2022-09-10T16:02:56.721Z,1.60
2022-09-10T16:05:27.379Z,1.10
2022-09-10T16:07:58.026Z,0.80
2022-09-10T16:10:28.940Z,1.30
2022-09-10T16:13:00.066Z,0.70
2022-09-10T16:15:31.041Z,0.70
2022-09-10T16:18:02.327Z,2.10
2022-09-10T16:20:33.713Z,0.70
2022-09-10T16:23:04.952Z,4.20
2022-09-10T16:25:35.677Z,1.60
2022-09-10T16:28:07.006Z,1.10
2022-09-10T16:30:37.744Z,1.30
2022-09-10T16:33:09.724Z,0.90
2022-09-10T16:38:10.430Z,0.70
2022-09-10T16:40:41.022Z,0.80
2022-09-10T16:43:12.862Z,1.70
2022-09-10T16:45:52.089Z,1.30
2022-09-10T16:48:22.921Z,1.20
2022-09-10T16:50:53.612Z,1.30
2022-09-10T16:53:24.291Z,1.30
2022-09-10T16:56:00.753Z,1.70
2022-09-10T16:58:35.751Z,3.50
2022-09-10T17:01:09.617Z,2.10
2022-09-10T17:03:42.770Z,1.70
2022-09-10T17:06:18.260Z,1.50
2022-09-10T17:08:50.134Z,3.00
2022-09-10T17:11:22.910Z,3.50
2022-09-10T17:13:54.168Z,1.30
2022-09-10T17:16:32.717Z,1.90
2022-09-10T17:19:07.046Z,1.70
2022-09-10T17:21:39.384Z,1.30
2022-09-10T17:24:12.410Z,4.00
2022-09-10T17:26:43.759Z,3.00
2022-09-10T17:29:15.974Z,3.80
2022-09-10T17:31:47.626Z,15.80
2022-09-10T17:34:21.444Z,4.00
2022-09-10T17:36:52.058Z,12.40
2022-09-10T17:39:22.760Z,6.50
2022-09-10T17:41:55.220Z,36.20
2022-09-10T17:44:26.883Z,24.70
2022-09-10T17:46:57.545Z,15.60
2022-09-10T17:49:28.663Z,63.50
2022-09-10T17:52:00.415Z,62.90
2022-09-10T17:54:31.239Z,41.30
2022-09-10T17:57:02.016Z,9.00
2022-09-10T17:59:32.847Z,18.00
2022-09-10T18:02:03.864Z,13.60
2022-09-10T18:04:35.088Z,13.90
2022-09-10T18:07:06.590Z,10.70
2022-09-10T18:09:37.580Z,4.80
2022-09-10T18:12:09.024Z,4.40
2022-09-10T18:14:40.103Z,3.10
2022-09-10T18:17:10.859Z,4.10
2022-09-10T18:19:41.663Z,3.80
2022-09-10T18:22:12.787Z,3.40
2022-09-10T18:24:44.866Z,4.40
2022-09-10T18:29:45.405Z,2.50
2022-09-10T18:32:16.146Z,5.80
2022-09-10T18:34:46.916Z,5.30
2022-09-10T18:37:17.951Z,5.30
2022-09-10T18:39:49.356Z,4.70
2022-09-10T18:42:20.352Z,3.80
2022-09-10T18:44:51.058Z,3.60
2022-09-10T18:47:43.593Z,5.60
2022-09-10T18:50:15.660Z,3.20
2022-09-10T18:52:46.401Z,4.50
2022-09-10T18:55:17.192Z,3.60
2022-09-10T18:57:48.136Z,2.40
2022-09-10T19:00:19.543Z,2.20
2022-09-10T19:02:50.437Z,3.60
2022-09-10T19:05:21.121Z,4.00
2022-09-10T19:07:52.288Z,5.30
2022-09-10T19:10:23.169Z,3.80
2022-09-10T19:12:54.645Z,2.30
2022-09-10T19:15:27.920Z,4.60
2022-09-10T19:17:59.954Z,2.80
2022-09-10T19:20:37.280Z,3.30
2022-09-10T19:23:09.538Z,3.70
2022-09-10T19:25:40.528Z,3.60
2022-09-10T19:28:11.183Z,4.50
2022-09-10T19:30:42.009Z,5.20
2022-09-10T19:33:16.036Z,6.80
2022-09-10T19:35:47.583Z,5.40
2022-09-10T19:38:36.676Z,3.60
2022-09-10T19:43:40.084Z,2.90
2022-09-10T19:46:12.351Z,4.00
2022-09-10T19:48:43.509Z,4.30
2022-09-10T19:51:16.470Z,4.50
2022-09-10T19:53:47.887Z,4.80
2022-09-10T19:56:20.862Z,4.60
2022-09-10T19:58:53.217Z,4.10
2022-09-10T20:01:26.725Z,5.60
2022-09-10T20:03:58.132Z,3.60
2022-09-10T20:06:30.757Z,5.70
2022-09-10T20:09:01.784Z,3.90
2022-09-10T20:11:35.069Z,5.10
2022-09-10T20:14:08.146Z,4.80
2022-09-10T20:16:41.679Z,4.90
2022-09-10T20:19:14.478Z,5.50
2022-09-10T20:21:46.464Z,4.50
2022-09-10T20:24:17.884Z,3.90
2022-09-10T20:26:49.137Z,3.60
2022-09-10T20:29:22.448Z,4.60
2022-09-10T20:31:53.613Z,4.00
2022-09-10T20:34:25.504Z,4.60
2022-09-10T20:36:56.314Z,3.90
2022-09-10T20:39:27.260Z,7.80
2022-09-10T20:41:59.379Z,4.20
2022-09-10T20:47:00.230Z,2.90
2022-09-10T20:49:30.904Z,6.90
2022-09-10T20:52:01.576Z,4.20
2022-09-10T20:54:32.210Z,4.80
2022-09-10T20:57:03.290Z,4.40
2022-09-10T20:59:34.679Z,3.50
2022-09-10T21:02:05.621Z,4.40
2022-09-10T21:04:36.780Z,4.50
2022-09-10T21:07:07.406Z,2.80
2022-09-10T21:09:38.352Z,3.60
2022-09-10T21:12:11.391Z,3.70
2022-09-10T21:14:42.043Z,4.20
2022-09-10T21:17:12.631Z,5.80
2022-09-10T21:19:43.570Z,5.20
2022-09-10T21:22:14.380Z,8.50
2022-09-10T21:24:44.972Z,6.20
2022-09-10T21:27:15.621Z,6.90
2022-09-10T21:29:46.607Z,3.40
2022-09-10T21:32:17.225Z,4.70
2022-09-10T21:34:48.584Z,3.60
2022-09-10T21:37:19.548Z,5.70
2022-09-10T21:39:50.305Z,3.30
2022-09-10T21:42:21.167Z,3.90
2022-09-10T21:44:51.831Z,5.70
2022-09-10T21:47:22.427Z,3.60
2022-09-10T21:49:53.117Z,3.40
2022-09-10T21:52:24.190Z,3.40
2022-09-10T21:54:54.869Z,4.10
2022-09-10T21:57:25.468Z,1.80
2022-09-10T21:59:56.015Z,4.10
2022-09-10T22:02:26.925Z,2.30
2022-09-10T22:04:57.671Z,1.60
2022-09-10T22:07:28.243Z,2.20
2022-09-10T22:09:59.247Z,1.70
2022-09-10T22:12:29.977Z,1.80
2022-09-10T22:15:00.632Z,3.40
2022-09-10T22:17:31.358Z,1.80
2022-09-10T22:20:02.109Z,2.30
2022-09-10T22:22:32.743Z,2.40
2022-09-10T22:25:03.403Z,2.10
2022-09-10T22:27:34.117Z,2.80
2022-09-10T22:30:05.352Z,2.50
2022-09-10T22:32:37.409Z,2.00
2022-09-10T22:35:09.335Z,2.00
2022-09-10T22:37:40.158Z,4.00
2022-09-10T22:40:12.318Z,3.60
2022-09-10T22:42:42.925Z,2.70
2022-09-10T22:45:14.382Z,2.40
2022-09-10T22:47:44.981Z,3.60
2022-09-10T22:50:16.393Z,6.20
2022-09-10T22:52:46.958Z,2.70
2022-09-10T22:55:17.734Z,3.60
2022-09-10T22:57:48.404Z,3.10
2022-09-10T23:00:19.226Z,2.90
2022-09-10T23:02:49.911Z,3.30
2022-09-10T23:05:20.719Z,2.40
2022-09-10T23:07:52.106Z,2.30
2022-09-10T23:10:22.900Z,2.80
2022-09-10T23:12:53.608Z,1.40
2022-09-10T23:15:24.230Z,2.30
2022-09-10T23:17:56.736Z,1.80
2022-09-10T23:20:27.554Z,2.40
2022-09-10T23:22:58.225Z,2.60
2022-09-10T23:25:28.856Z,1.50
2022-09-10T23:28:00.514Z,1.50
2022-09-10T23:30:33.033Z,1.90
2022-09-10T23:33:03.632Z,3.60
2022-09-10T23:35:34.308Z,2.50
2022-09-10T23:38:05.487Z,4.20
2022-09-10T23:40:36.154Z,2.10
2022-09-10T23:43:06.838Z,2.90
2022-09-10T23:45:37.519Z,4.30
2022-09-10T23:48:08.578Z,4.00
2022-09-10T23:50:39.245Z,4.10
2022-09-10T23:53:10.021Z,3.60
2022-09-10T23:55:40.579Z,3.40
2022-09-10T23:58:11.389Z,6.60
